Date,TemperatureHighF,TemperatureAvgF,TemperatureLowF,DewpointHighF,DewpointAvgF,DewpointLowF,HumidityHigh,HumidityAvg,HumidityLow,PressureMaxIn,PressureMinIn,WindSpeedMaxMPH,WindSpeedAvgMPH,GustSpeedMaxMPH,PrecipitationSumIn
2013-1-9,53.9,48.3,40.7,44.9,42.0,36.8,86,79,72,30.47,30.41,5,0,5,0.00
2013-1-14,63.4,61.4,0.0,62.2,60.3,0.0,97,96,93,30.16,30.06,16,4,16,0.34
2013-1-15,56.4,43.5,39.7,55.6,42.3,38.7,97,96,93,30.22,30.09,22,7,22,0.10
2013-1-16,40.3,40.2,40.1,39.5,39.4,39.3,97,97,97,30.10,30.09,7,2,7,0.00
2013-1-31,43.6,38.1,35.5,22.3,21.2,20.3,57,50,42,30.01,29.93,23,6,34,0.04
2013-2-1,39.8,33.1,25.0,28.0,13.5,3.3,68,45,27,30.40,29.89,33,10,33,0.00
2013-2-2,25.1,24.8,24.5,9.1,8.7,8.5,51,50,49,30.40,30.39,4,1,7,0.00
2013-2-3,47.7,42.5,34.6,31.1,26.6,22.9,87,53,44,30.02,29.87,32,10,34,0.01
2013-2-4,46.9,41.7,30.0,28.6,25.5,21.4,70,53,43,30.16,30.00,16,5,16,0.01
2013-2-5,59.7,46.5,38.5,37.7,32.6,27.4,72,59,43,30.01,29.90,20,4,21,0.00
2013-2-6,58.9,48.7,36.4,34.8,29.5,23.7,82,51,27,30.27,29.98,17,4,17,0.00
2013-2-7,44.2,38.5,35.0,35.8,32.6,26.4,94,80,50,30.32,30.04,18,6,19,0.64
2013-2-8,56.4,42.8,35.1,46.2,35.5,27.6,95,78,41,30.10,29.87,28,9,29,0.17
2013-2-9,53.5,41.8,32.7,28.4,21.5,16.5,72,47,24,30.36,30.10,20,4,20,0.00
2013-2-10,52.5,43.3,35.5,40.6,22.6,17.8,89,46,28,30.47,30.19,18,4,19,0.11
2013-2-11,56.3,48.5,41.1,55.3,47.0,39.2,98,94,89,30.19,29.95,17,5,17,0.06
2013-2-12,55.4,50.0,43.8,50.9,33.8,26.5,96,56,34,30.12,29.92,17,4,19,0.00
2013-2-13,48.7,43.6,42.2,43.0,40.9,35.6,95,91,61,29.96,29.64,11,2,11,0.20
2013-2-14,50.1,44.6,34.7,34.5,32.4,29.1,82,63,52,30.08,30.00,17,5,18,0.00
2013-2-15,58.8,46.8,34.3,39.2,34.0,30.2,90,65,35,30.11,29.93,26,5,26,0.00
2013-2-16,41.8,35.6,33.9,33.5,31.4,30.4,89,85,69,29.99,29.83,15,3,18,0.00
2013-2-17,33.9,31.7,24.3,31.0,22.9,6.0,89,73,35,30.17,29.97,30,6,30,0.00
2013-2-18,51.4,44.4,24.1,27.0,22.8,12.6,61,43,31,30.42,30.22,22,8,24,0.00
2013-2-19,40.6,38.1,35.9,26.9,26.6,26.1,68,63,57,30.24,30.14,18,10,24,0.00
2013-2-20,48.9,43.4,33.8,16.2,12.4,8.5,47,28,22,30.11,30.05,23,9,23,0.00
2013-3-7,49.4,42.5,34.0,29.9,27.4,24.4,68,55,45,30.30,30.16,23,8,24,0.00
2013-3-8,53.3,41.4,30.6,27.2,25.0,23.1,76,54,33,30.34,30.22,27,6,27,0.00
2013-3-9,61.4,46.9,32.8,34.5,29.2,25.1,74,52,33,30.38,30.25,13,2,13,0.00
2013-3-18,36.3,36.3,36.3,34.7,34.7,34.7,94,94,94,30.10,30.02,5,5,5,0.00
2013-3-27,46.5,42.7,37.3,23.7,22.3,21.3,52,44,38,30.28,30.20,27,9,27,0.00
2013-3-28,49.6,37.2,30.7,25.3,22.2,20.2,66,55,38,30.31,30.25,24,6,25,0.00
2013-4-2,59.1,51.9,39.0,32.1,26.3,20.1,76,38,24,30.16,30.05,23,7,23,0.00
2013-4-23,67.1,61.4,50.2,53.1,50.7,42.9,87,68,57,30.28,30.11,14,4,15,0.00
2013-4-24,72.2,61.5,51.4,57.4,53.9,49.4,93,78,57,30.14,29.97,36,9,36,0.00
2013-4-25,70.0,58.4,47.4,57.6,39.0,25.9,81,52,21,30.28,30.01,26,6,28,0.00
2013-4-26,69.2,58.0,45.7,44.1,36.2,32.1,64,45,28,30.44,30.28,15,3,16,0.00
2013-4-27,64.7,58.9,54.3,52.4,48.0,41.1,85,68,54,30.36,30.25,11,3,12,0.00
2013-4-28,56.7,54.4,52.5,53.9,52.3,50.8,97,93,85,30.26,30.05,14,3,14,0.47
2013-4-29,69.3,60.1,54.5,60.2,56.8,53.7,97,90,69,30.06,29.96,14,2,15,0.97
2013-4-30,65.7,59.9,55.8,59.0,56.4,53.4,96,88,77,30.19,30.00,13,4,14,0.00
2013-5-1,62.0,57.8,55.4,57.5,54.8,52.6,94,90,81,30.32,30.17,19,6,20,0.00
2013-5-2,60.4,56.8,53.5,55.8,53.5,50.0,92,89,84,30.34,30.26,17,6,17,0.00
2013-5-3,65.6,57.4,49.0,53.0,49.9,44.5,93,77,57,30.26,30.15,21,6,22,0.00
2013-5-4,59.4,52.5,46.4,51.1,46.3,42.7,92,80,62,30.18,30.05,24,9,24,0.00
2013-5-5,55.2,51.7,47.5,53.8,48.5,44.1,95,89,82,30.08,29.94,26,10,26,0.13
2013-5-6,66.0,58.9,54.4,61.6,56.7,53.1,99,93,81,29.96,29.81,24,6,25,0.88
2013-5-7,67.2,57.4,53.2,55.8,52.7,48.6,98,86,52,29.95,29.84,28,3,28,0.01
2013-5-8,69.8,59.3,52.7,59.2,54.9,50.9,96,86,65,30.01,29.92,18,3,19,0.02
2013-5-9,78.8,66.3,53.9,59.4,56.3,52.4,96,73,46,30.08,29.99,17,4,17,0.01
2013-5-10,81.2,71.2,58.0,63.7,59.6,54.6,90,68,49,30.06,29.91,26,5,26,0.00
2013-5-11,77.7,70.0,61.5,64.0,61.4,59.8,94,75,57,29.94,29.77,23,7,24,0.33
2013-5-12,68.7,61.3,52.6,60.0,46.8,34.1,96,63,30,30.04,29.82,27,7,32,0.05
2013-5-13,65.3,55.4,44.6,38.4,34.1,29.3,73,46,27,30.18,30.04,22,4,22,0.00
2013-5-14,69.5,57.1,41.9,46.2,39.5,32.8,80,54,36,30.26,30.06,20,5,21,0.00
2013-5-15,86.0,71.0,54.2,64.6,56.4,45.6,81,61,45,30.06,29.90,24,7,24,0.00
2013-5-16,80.3,73.1,63.8,62.6,60.6,56.4,87,66,45,29.99,29.89,20,5,20,0.00
2013-5-17,84.3,74.4,63.0,65.5,61.8,57.6,88,67,43,30.07,29.98,16,3,17,0.00
2013-5-18,73.5,67.6,64.3,66.2,63.4,61.6,92,87,73,30.15,30.05,15,2,16,0.01
2013-5-19,72.7,67.3,63.7,68.5,64.8,61.3,96,92,84,30.13,30.04,22,5,22,0.01
2013-5-20,80.0,70.0,65.9,70.3,65.7,61.2,95,87,63,30.11,30.00,19,4,21,0.13
2013-5-21,84.1,73.5,65.6,72.1,68.5,63.7,98,85,62,30.05,29.93,21,5,21,0.00
2013-5-22,82.3,73.2,66.2,69.6,66.8,64.2,96,81,63,30.01,29.87,25,8,25,0.06
2013-5-23,76.0,67.4,62.4,68.8,64.3,59.7,97,90,74,29.95,29.81,20,4,22,0.25
2013-5-24,67.5,62.7,54.8,61.0,48.9,36.8,95,64,36,30.20,29.84,34,8,34,0.01
2013-5-25,74.0,60.4,46.2,47.4,40.2,34.3,80,49,30,30.29,30.14,23,5,23,0.00
2013-5-26,73.1,62.3,53.7,54.0,46.4,38.1,78,57,42,30.28,30.16,16,2,17,0.00
2013-5-27,78.0,67.2,54.1,58.9,54.6,50.1,87,65,48,30.28,30.13,19,4,19,0.00
2013-5-28,82.3,72.4,63.0,65.5,63.0,57.5,93,74,54,30.22,30.12,23,8,23,0.00
2013-5-29,83.0,73.6,63.7,66.6,63.4,59.7,88,72,52,30.23,30.14,18,6,18,0.00
2013-5-30,82.7,73.3,63.4,66.7,63.8,61.1,94,74,49,30.26,30.16,17,5,18,0.00
2013-5-31,83.0,74.8,65.2,68.7,65.7,62.5,94,75,55,30.22,30.09,20,6,20,0.00
2013-6-1,83.5,76.0,68.1,68.1,65.9,62.3,93,73,52,30.12,29.99,24,8,26,0.00
2013-6-2,80.5,73.1,68.0,70.2,66.8,64.6,96,81,64,30.03,29.89,23,7,23,0.05
2013-6-3,81.5,70.3,67.2,70.5,67.4,64.9,97,91,64,29.96,29.83,20,4,22,0.57
2013-6-4,74.0,69.0,65.2,66.2,64.3,62.0,95,85,75,30.09,29.94,14,3,14,0.00
2013-6-5,74.4,68.4,63.8,66.6,63.2,60.3,94,84,75,30.12,30.00,13,3,14,0.00
2013-6-6,73.0,68.8,64.3,71.5,67.7,62.3,98,96,88,30.02,29.80,21,5,21,0.47
2013-6-7,76.1,69.4,67.0,71.3,67.8,66.2,98,95,84,29.83,29.62,19,4,21,0.48
2013-6-8,81.0,72.1,62.7,69.5,66.1,61.0,98,83,61,30.08,29.82,22,3,23,0.28
2013-6-9,84.7,74.9,67.3,72.4,68.9,65.5,96,83,59,30.15,30.04,20,4,20,0.81
2013-6-10,81.0,72.6,68.4,72.8,69.4,66.0,96,90,72,30.08,29.86,33,8,33,0.01
2013-6-11,83.3,74.6,67.5,68.3,65.8,62.6,97,76,54,29.97,29.90,24,7,24,0.02
2013-6-12,89.5,78.6,67.4,77.2,69.7,62.5,86,75,63,29.98,29.85,20,5,20,0.00
2013-6-13,90.8,80.5,65.8,74.7,71.9,60.3,95,77,49,29.86,29.61,46,7,51,0.02
2013-6-14,78.7,74.6,67.1,60.2,58.0,55.3,75,57,46,30.02,29.91,18,3,20,0.01
2013-6-15,81.6,71.7,59.8,64.7,60.3,56.2,89,69,50,30.13,30.02,18,3,18,0.00
2013-6-16,84.1,75.0,66.1,69.2,65.5,61.6,87,73,58,30.12,29.99,21,7,21,0.00
2013-6-17,83.0,74.6,69.0,72.6,69.2,66.6,95,84,63,30.02,29.92,20,4,20,0.00
2013-6-18,79.4,72.0,68.5,72.5,69.0,66.5,96,91,77,29.96,29.78,22,6,22,0.01
2013-6-19,80.2,72.5,65.2,68.2,65.8,63.4,95,81,58,30.12,29.89,10,2,10,0.00
2013-6-20,79.7,71.1,64.6,67.4,65.0,63.3,96,82,60,30.24,30.11,14,2,14,0.00
2013-6-21,80.3,71.7,62.2,65.3,61.2,57.2,88,71,53,30.27,30.18,14,3,16,0.00
2013-6-22,81.0,71.7,63.8,70.4,65.4,57.4,96,81,68,30.23,30.11,13,3,14,0.00
2013-6-23,86.5,75.4,67.4,72.9,69.3,65.9,96,82,56,30.21,30.11,18,3,20,0.00
2013-6-24,85.9,75.4,69.5,73.9,70.7,68.0,97,86,62,30.20,30.08,24,4,24,0.00
2013-6-25,87.5,76.4,69.4,74.8,70.9,67.7,97,84,58,30.12,29.98,22,4,23,0.01
2013-6-26,87.7,74.1,66.5,74.0,69.0,63.3,95,85,59,30.02,29.88,27,5,27,0.20
2013-6-27,84.7,76.2,67.2,74.9,70.8,65.3,97,84,68,29.95,29.71,19,6,19,0.00
2013-6-28,87.5,77.2,69.4,76.2,71.3,67.6,97,83,60,29.75,29.58,26,5,26,0.46
2013-6-29,83.8,75.5,68.6,72.3,69.9,67.2,98,84,62,29.70,29.60,21,5,21,0.64
2013-6-30,82.9,74.1,68.8,72.9,70.2,67.3,96,88,70,29.84,29.68,22,5,23,0.07
2013-7-1,70.8,68.5,68.1,68.4,67.4,66.7,97,96,92,29.90,29.83,10,2,10,0.10
2013-7-3,79.3,75.3,71.9,74.3,72.5,69.4,97,91,79,30.22,30.16,20,5,20,0.23
2013-7-4,84.8,76.1,72.5,75.9,72.2,70.5,97,88,65,30.26,30.16,28,7,28,0.08
2013-7-5,82.9,76.0,71.6,75.0,71.9,70.1,96,88,69,30.25,30.16,21,6,22,0.02
2013-7-6,85.0,75.5,69.9,74.1,71.1,68.7,97,87,64,30.25,30.10,32,4,32,0.01
2013-7-7,82.2,76.0,71.8,76.7,72.4,69.8,97,89,76,30.18,30.06,21,5,21,0.01
2013-7-8,84.4,76.9,70.4,73.5,71.2,68.9,97,84,63,30.18,30.08,14,3,14,0.02
2013-7-9,86.5,78.2,72.2,76.6,73.3,70.9,97,86,65,30.15,30.03,17,5,19,0.01
2013-7-10,85.5,76.7,70.7,74.9,71.5,69.3,96,85,67,30.09,29.92,26,6,26,0.01
2013-7-11,78.1,73.4,68.2,74.1,71.4,66.2,97,93,86,29.96,29.86,24,4,24,0.00
2013-7-12,76.4,70.9,67.2,69.7,67.5,65.0,98,89,76,30.03,29.88,17,4,18,0.01
2013-7-13,78.1,71.6,66.8,72.4,68.9,64.9,97,91,82,30.14,30.02,18,4,18,0.01
2013-7-14,85.0,76.1,71.3,74.7,71.4,69.6,97,86,64,30.30,30.14,23,5,23,0.00
2013-7-15,87.7,78.6,70.4,73.1,70.5,68.0,96,78,54,30.33,30.24,12,2,12,0.00
2013-7-16,90.8,80.7,71.3,75.4,71.9,68.7,92,76,55,30.29,30.19,13,3,13,0.00
2013-7-17,90.8,79.0,74.0,77.1,73.1,70.1,93,83,60,30.23,30.11,19,3,20,0.00
2013-7-18,90.0,79.9,71.5,78.4,73.9,69.8,95,83,62,30.15,30.02,21,3,21,0.00
2013-7-19,87.5,80.3,73.7,76.4,74.1,71.8,95,82,67,30.10,29.97,20,6,20,0.00
2013-7-20,83.7,76.7,72.6,75.8,72.7,70.8,95,88,76,30.01,29.91,17,5,19,0.00
2013-7-21,86.3,75.6,72.0,76.5,72.0,70.1,97,89,71,30.00,29.91,18,4,18,0.03
2013-7-22,83.3,76.3,70.6,74.1,71.9,69.5,98,87,70,29.97,29.82,20,5,20,0.00
2013-7-23,88.1,78.7,70.4,72.7,70.5,67.5,96,77,54,29.84,29.72,21,6,22,0.00
2013-7-24,89.7,79.5,69.9,72.1,69.8,66.9,91,73,53,29.86,29.73,17,4,19,0.00
2013-7-25,80.3,72.9,66.2,69.0,66.6,62.0,95,81,66,30.03,29.82,18,4,21,0.00
2013-7-26,82.3,74.2,66.4,69.4,66.5,63.5,92,78,61,30.11,30.01,16,3,18,0.00
2013-7-27,74.6,70.1,66.5,70.8,68.0,65.1,97,93,86,30.04,29.93,31,3,31,0.69
2013-7-28,83.3,74.7,68.6,71.6,69.3,67.5,97,84,64,30.00,29.92,16,4,16,0.01
2013-7-29,83.7,74.7,67.0,68.7,64.8,60.8,96,73,49,30.16,29.99,13,2,14,0.00
2013-7-30,82.5,73.8,65.7,69.5,63.6,57.7,84,71,56,30.23,30.14,12,2,12,0.00
2013-7-31,78.8,73.7,68.8,71.6,69.0,66.2,95,86,71,30.15,29.99,25,2,25,0.20
2013-8-1,83.5,75.3,69.6,73.3,70.6,68.4,96,86,67,29.99,29.86,14,4,15,0.00
2013-8-2,85.3,76.6,68.3,70.7,68.4,66.2,94,77,55,30.03,29.91,11,2,12,0.00
2013-8-3,86.8,78.3,70.1,75.8,71.0,68.3,95,80,56,30.01,29.90,19,5,23,0.00
2013-8-4,85.3,77.2,69.8,70.0,65.6,59.6,91,69,43,30.03,29.90,21,5,21,0.00
2013-8-5,80.0,73.5,65.8,69.0,65.5,60.2,86,77,62,30.08,29.98,17,4,17,0.00
2013-8-6,76.9,70.2,64.0,70.6,66.8,62.5,95,89,79,30.06,29.98,22,6,22,0.68
2013-8-7,82.1,74.7,68.8,71.4,69.1,66.3,96,84,61,30.10,30.01,20,5,20,0.00
2013-8-8,81.9,75.5,70.3,75.1,72.0,68.7,96,89,76,30.07,29.99,17,5,19,0.08
2013-8-9,87.7,76.9,72.6,76.5,72.9,68.3,95,88,66,30.05,29.98,27,6,28,0.22
2013-8-10,87.0,75.1,70.8,77.5,72.4,68.3,97,92,66,30.10,30.03,31,4,31,0.37
2013-8-11,88.0,77.4,69.9,76.5,72.4,69.0,98,86,61,30.12,30.02,12,2,14,0.00
2013-8-12,89.0,78.9,71.8,75.4,72.4,69.5,97,82,56,30.05,29.93,18,3,18,0.25
2013-8-13,84.3,74.1,70.0,75.9,71.5,68.2,98,92,71,29.95,29.79,33,4,33,0.47
2013-8-14,74.9,70.4,64.2,70.5,62.3,56.6,91,76,56,30.09,29.85,15,4,17,0.00
2013-8-15,72.8,65.9,59.7,60.6,57.6,54.5,93,76,55,30.17,30.08,15,3,16,0.00
2013-8-16,70.5,64.0,58.4,61.9,58.5,54.9,91,83,71,30.19,30.10,11,2,11,0.00
2013-8-17,64.0,62.0,59.6,62.7,60.3,57.5,97,94,88,30.21,30.14,17,5,17,2.52
2013-8-18,76.6,68.5,63.5,69.4,65.6,62.6,98,91,76,30.24,30.15,8,2,11,0.38
2013-8-19,73.8,68.4,65.0,68.9,66.5,64.1,98,94,83,30.20,30.10,7,1,7,0.47
2013-8-20,79.8,71.8,64.5,72.1,68.5,63.5,99,90,75,30.20,30.12,10,1,10,0.00
2013-8-21,80.5,74.5,70.1,74.9,71.4,68.5,96,90,80,30.22,30.10,16,2,16,0.07
2013-8-22,86.5,75.8,68.3,73.7,70.4,66.5,99,85,61,30.15,29.99,18,3,18,0.16
2013-8-23,83.9,73.5,65.1,73.2,68.7,62.0,96,86,64,30.10,29.95,21,5,21,0.01
2013-8-24,79.0,70.2,62.5,62.7,60.6,56.0,93,73,47,30.31,30.09,23,5,23,0.01
2013-8-25,77.3,68.9,59.4,64.4,60.8,57.5,94,77,56,30.40,30.29,14,2,14,0.00
2013-8-26,80.8,69.4,59.1,65.6,60.9,56.2,92,76,51,30.33,30.11,12,2,12,0.00
2013-8-27,86.5,75.1,64.3,73.9,68.0,61.2,93,79,60,30.13,29.97,14,4,14,0.00
2013-8-28,83.6,77.4,71.4,75.6,72.0,68.3,92,84,72,30.00,29.88,15,4,15,0.00
2013-8-29,86.0,78.6,72.9,74.7,72.1,69.8,92,81,67,30.00,29.86,17,4,17,0.00
2013-8-30,84.7,75.4,68.1,70.2,68.0,63.5,96,79,55,30.07,29.93,11,2,11,0.00
2013-8-31,85.5,73.6,67.5,74.6,69.2,65.2,97,87,68,29.95,29.86,24,4,24,0.05
2013-9-1,86.1,72.6,67.9,76.8,70.0,67.0,98,92,69,29.91,29.79,25,1,29,1.03
2013-9-2,84.8,74.7,67.5,73.7,70.3,66.9,99,87,65,29.92,29.81,8,1,8,0.00
2013-9-3,86.8,78.0,69.3,72.8,69.4,64.2,94,76,53,29.96,29.80,0,0,0,0.00
2013-9-4,84.1,73.4,64.2,67.5,64.3,60.6,89,74,54,30.09,29.96,0,0,0,0.00
2013-9-5,84.7,73.7,64.1,65.6,62.8,56.3,93,71,39,30.12,30.04,3,0,3,0.00
2013-9-6,79.1,70.7,64.3,63.8,60.4,56.4,87,71,55,30.20,30.09,12,0,12,0.00
2013-9-7,79.8,69.5,59.5,67.4,62.8,56.7,94,80,62,30.14,29.98,1,0,1,0.00
2013-9-8,84.5,74.8,65.5,72.3,66.8,63.5,94,78,55,29.99,29.91,0,0,0,0.00
2013-9-9,86.2,76.4,67.1,71.4,68.6,65.0,94,78,55,30.14,29.99,2,0,2,0.00
2013-9-10,86.6,76.9,68.2,72.2,69.5,66.4,95,79,58,30.23,30.13,3,0,3,0.00
2013-9-11,86.2,77.4,69.2,72.6,69.6,65.8,90,78,59,30.20,30.06,0,0,3,0.00
2013-9-12,86.5,75.7,68.8,75.2,69.5,65.4,92,82,65,30.06,29.82,2,0,2,0.00
2013-9-13,80.8,72.7,63.4,67.9,60.7,52.7,94,68,43,29.92,29.77,0,0,0,0.00
2013-9-14,74.0,63.6,54.7,58.9,53.6,49.6,84,71,53,30.14,29.92,0,0,0,0.00
2013-9-15,77.6,65.5,53.5,65.1,58.2,50.6,91,78,60,30.25,30.12,0,0,0,0.00
2013-9-16,82.5,71.5,63.4,66.7,63.3,60.1,93,77,53,30.19,30.05,10,0,10,0.00
2013-9-17,72.0,65.0,58.7,60.1,55.6,53.0,89,72,53,30.33,30.19,7,0,7,0.00
2013-9-18,71.3,61.4,53.1,58.1,53.8,50.2,91,77,59,30.33,30.18,7,0,7,0.00
2013-9-19,72.4,65.2,58.1,63.8,58.4,52.6,89,79,66,30.20,30.08,3,0,3,0.00
2013-9-20,81.2,70.3,64.8,69.9,65.6,61.6,96,85,66,30.09,29.93,15,0,15,0.67
2013-9-21,73.8,67.7,63.0,69.1,65.9,61.7,97,94,84,29.95,29.71,0,0,0,0.71
2013-9-22,73.6,65.9,59.3,61.8,57.8,53.8,96,77,52,29.92,29.73,6,0,6,0.00
2013-9-23,71.8,62.4,54.9,58.8,54.3,49.9,90,76,59,30.08,29.92,1,0,1,0.00
2013-9-24,76.2,64.3,57.2,61.3,57.3,54.1,91,79,56,30.10,29.94,1,0,1,0.00
2013-9-25,69.6,62.1,56.4,62.4,58.6,54.2,95,88,73,29.95,29.88,1,0,1,0.00
2013-9-26,72.4,64.3,59.0,60.1,56.5,49.5,97,78,45,30.05,29.89,5,0,5,0.00
2013-9-27,72.3,62.7,53.2,58.3,54.6,50.9,93,76,54,30.20,30.05,9,0,9,0.00
2013-9-28,67.5,59.3,52.8,55.1,52.9,45.1,95,80,61,30.28,30.19,0,0,0,0.00
2013-9-29,69.5,60.3,54.8,57.0,54.0,51.4,93,81,61,30.19,30.05,0,0,0,0.00
2013-9-30,74.3,62.7,52.5,59.8,54.8,50.0,92,77,53,30.11,30.01,0,0,0,0.00
2013-10-1,80.2,68.1,58.0,63.1,58.9,54.8,91,74,49,30.13,30.03,2,0,2,0.00
2013-10-2,81.7,70.3,60.2,64.4,60.8,57.3,92,74,51,30.15,30.05,0,0,0,0.00
2013-10-3,81.7,71.0,61.1,66.6,62.3,58.5,92,75,52,30.13,30.05,0,0,0,0.00
2013-10-4,84.1,72.2,62.6,66.2,62.9,59.6,91,74,49,30.14,30.05,0,0,0,0.00
2013-10-5,85.0,73.9,63.6,68.6,65.1,61.0,94,76,53,30.12,30.02,0,0,0,0.00
2013-10-6,80.7,71.9,64.1,67.6,64.7,61.2,91,79,60,30.05,29.90,0,0,0,0.00
2013-10-7,73.5,68.5,60.9,69.3,64.2,50.6,97,86,70,30.02,29.80,0,0,0,0.90
2013-10-8,63.4,58.5,54.4,51.1,48.4,45.3,79,69,58,30.23,30.01,0,0,0,0.00
2013-10-9,66.6,57.8,51.1,54.1,49.5,45.5,86,74,59,30.24,30.14,0,0,0,0.00
2013-10-10,67.9,59.8,53.2,61.7,55.1,47.5,94,85,78,30.14,29.97,0,0,0,0.00
2013-10-11,71.7,66.2,61.8,63.5,60.4,57.9,91,82,69,29.99,29.92,0,0,0,0.00
2013-10-12,70.2,64.6,59.5,62.9,60.5,56.6,92,87,74,30.10,29.96,0,0,0,0.00
2013-10-13,66.3,62.5,60.6,62.3,60.2,58.5,96,92,87,30.24,30.09,0,0,0,0.01
2013-10-14,65.1,60.6,58.5,60.4,58.1,55.7,96,91,84,30.27,30.18,0,0,0,0.01
2013-10-15,70.8,61.4,54.2,56.1,54.3,52.5,95,79,55,30.22,30.07,0,0,0,0.00
2013-10-16,71.9,64.3,56.6,60.6,57.7,52.9,92,79,66,30.10,29.95,0,0,0,0.00
2013-10-17,67.9,63.9,60.4,63.7,61.1,58.4,96,91,84,29.97,29.83,0,0,0,0.07
2013-10-18,67.4,59.9,53.3,62.3,53.3,47.2,97,80,56,30.06,29.89,0,0,0,0.01
2013-10-19,60.9,57.1,54.1,59.2,55.1,51.5,96,93,90,29.98,29.84,0,0,0,0.01
2013-10-20,64.0,53.4,45.1,54.7,42.3,36.8,96,68,39,30.12,29.93,0,0,0,0.01
2013-10-21,66.0,54.4,42.0,51.6,46.2,39.0,91,75,55,30.17,30.00,0,0,0,0.00
2013-10-22,65.6,59.0,55.0,57.5,54.1,50.6,95,84,66,30.02,29.80,0,0,0,0.00
2013-10-23,61.7,55.1,43.3,56.4,44.2,33.0,97,70,36,30.04,29.71,0,0,0,0.00
2013-10-24,54.6,45.5,36.5,38.6,33.5,30.6,80,64,49,30.20,30.03,0,0,0,0.00
2013-10-25,50.4,43.2,36.4,35.8,32.0,28.4,84,66,44,30.41,30.20,0,0,0,0.00
2013-10-26,55.9,43.5,31.3,37.5,31.3,26.5,84,64,41,30.39,30.09,0,0,0,0.00
2013-10-27,66.5,54.9,45.3,47.3,42.1,37.1,80,63,44,30.14,30.05,0,0,0,0.00
2013-10-28,65.5,55.7,46.7,53.8,49.2,43.8,92,79,62,30.27,30.11,0,0,0,0.00
2013-10-29,71.5,60.1,50.6,56.1,53.1,48.4,94,79,55,30.35,30.24,0,0,0,0.00
2013-10-30,75.3,63.0,54.7,59.4,55.6,51.8,91,78,56,30.29,30.15,0,0,0,0.00
2013-10-31,68.8,63.7,57.3,63.1,57.5,54.3,91,81,69,30.18,29.88,0,0,0,0.00
2013-11-1,68.3,64.5,59.0,64.0,61.3,57.1,96,90,81,29.89,29.66,0,0,0,0.28
2013-11-2,66.3,57.7,50.2,58.2,47.9,37.2,99,73,39,29.98,29.71,0,0,0,0.00
2013-11-3,59.4,50.4,42.5,39.1,36.5,34.7,78,60,42,30.37,29.98,0,0,0,0.00
2013-11-4,54.2,45.8,39.3,35.2,32.7,29.9,72,61,45,30.56,30.37,0,0,0,0.00
2013-11-5,54.7,45.5,34.9,48.2,38.5,29.1,94,77,65,30.59,30.46,0,0,0,0.00
2013-11-6,69.8,56.8,45.5,55.0,49.8,43.3,92,79,59,30.46,30.12,0,0,0,0.00
2013-11-7,64.3,53.9,44.2,55.9,46.3,33.1,95,77,49,30.15,29.96,0,0,0,0.00
2013-11-8,44.4,40.3,37.1,33.1,31.1,29.2,75,70,56,30.30,30.15,0,0,0,0.00
2013-12-10,50.2,41.1,31.7,44.6,32.6,22.0,98,74,49,30.34,29.96,0,0,0,0.01
2013-12-11,47.3,37.5,26.5,28.0,23.8,15.6,80,58,43,30.48,30.31,0,0,0,0.00
2013-12-12,43.9,36.8,30.8,25.9,17.7,10.7,64,47,28,30.45,30.31,0,0,0,0.00
2013-12-13,49.0,38.2,27.8,27.6,20.8,12.0,69,50,33,30.41,30.28,0,0,0,0.00
2013-12-14,41.6,38.6,35.7,36.7,32.1,27.0,100,79,57,30.31,29.80,16,1,16,0.59
2013-12-15,49.3,40.3,33.7,41.1,33.4,27.0,97,78,52,30.11,29.76,21,6,26,0.01
2013-12-16,55.4,42.3,31.0,35.1,30.8,26.2,83,65,42,30.19,30.09,18,5,18,0.00
2013-12-17,59.8,48.6,37.6,38.1,34.6,29.3,78,60,41,30.14,29.88,36,7,36,0.00
2013-12-18,48.3,41.3,33.8,31.2,20.1,15.2,62,43,27,30.30,30.06,18,5,30,0.00
2013-12-19,61.9,47.2,34.7,28.8,24.9,18.3,63,43,25,30.33,30.22,22,6,22,0.00
2013-12-20,62.0,53.3,44.9,50.8,41.4,28.0,87,65,46,30.25,30.13,25,7,25,0.00
2013-12-21,68.2,59.6,50.8,62.9,55.5,48.8,94,87,76,30.14,30.00,27,8,27,0.00
2013-12-22,72.2,65.5,60.0,66.9,63.1,58.2,97,92,79,30.08,29.96,26,12,33,1.02
2013-12-23,63.0,56.1,41.7,61.8,53.2,34.3,96,90,74,30.19,29.99,18,8,25,0.66
2013-12-24,43.5,37.0,27.2,34.4,24.6,13.3,77,61,41,30.50,30.17,26,7,26,0.00
2013-12-25,38.7,29.3,21.7,14.1,11.8,8.5,67,49,31,30.59,30.42,13,2,13,0.00
2013-12-26,50.9,36.4,25.6,29.7,20.9,11.8,72,54,40,30.43,30.28,13,2,13,0.00
2013-12-27,51.4,40.3,31.2,24.9,21.8,20.1,69,49,32,30.50,30.39,12,2,12,0.00
2013-12-28,53.2,41.9,28.7,38.9,28.0,19.0,84,59,39,30.43,30.15,10,1,10,0.00
2013-12-29,43.7,41.8,40.5,39.6,39.0,38.6,94,90,83,30.16,29.86,14,4,14,0.30
2014-1-2,43.1,39.7,36.6,41.9,37.4,25.3,96,92,64,29.76,29.65,33,6,33,0.37